sensor_id;sensor_type;location;lat;lon;timestamp;pressure;altitude;pressure_sealevel;temperature;humidity
41866;BME280;27539;43.222;27.558;2022-08-19T00:01:32;100002.59;;;23.29;100.00
41866;BME280;27539;43.222;27.558;2022-08-19T00:03:59;100018.78;;;23.29;100.00
41866;BME280;27539;43.222;27.558;2022-08-19T00:06:26;99993.06;;;23.13;100.00
41866;BME280;27539;43.222;27.558;2022-08-19T00:08:52;100009.16;;;23.21;100.00
41866;BME280;27539;43.222;27.558;2022-08-19T00:11:17;100010.97;;;23.05;100.00
41866;BME280;27539;43.222;27.558;2022-08-19T00:13:43;100014.34;;;23.19;100.00
41866;BME280;27539;43.222;27.558;2022-08-19T00:16:10;100011.69;;;23.23;100.00
41866;BME280;27539;43.222;27.558;2022-08-19T00:18:36;99986.59;;;23.04;100.00
41866;BME280;27539;43.222;27.558;2022-08-19T00:21:01;100019.28;;;23.10;100.00
41866;BME280;27539;43.222;27.558;2022-08-19T00:23:27;100017.84;;;22.95;100.00
41866;BME280;27539;43.222;27.558;2022-08-19T00:25:52;100024.75;;;23.15;100.00
41866;BME280;27539;43.222;27.558;2022-08-19T00:28:18;100018.63;;;23.04;100.00
41866;BME280;27539;43.222;27.558;2022-08-19T00:30:44;100022.34;;;23.05;100.00
41866;BME280;27539;43.222;27.558;2022-08-19T00:33:10;100022.78;;;23.07;100.00
41866;BME280;27539;43.222;27.558;2022-08-19T00:35:36;100015.19;;;22.99;100.00
41866;BME280;27539;43.222;27.558;2022-08-19T00:38:04;100025.38;;;23.00;100.00
41866;BME280;27539;43.222;27.558;2022-08-19T00:40:30;100008.16;;;22.96;100.00
41866;BME280;27539;43.222;27.558;2022-08-19T00:42:56;99975.56;;;22.81;100.00
41866;BME280;27539;43.222;27.558;2022-08-19T00:45:24;100013.13;;;23.08;100.00
41866;BME280;27539;43.222;27.558;2022-08-19T00:47:50;100019.00;;;23.24;100.00
41866;BME280;27539;43.222;27.558;2022-08-19T00:50:18;99981.00;;;23.16;100.00
41866;BME280;27539;43.222;27.558;2022-08-19T00:52:47;100021.41;;;23.34;100.00
41866;BME280;27539;43.222;27.558;2022-08-19T00:55:22;100002.88;;;23.37;100.00
41866;BME280;27539;43.222;27.558;2022-08-19T00:57:59;100007.94;;;23.31;100.00
41866;BME280;27539;43.222;27.558;2022-08-19T01:00:27;100016.16;;;23.24;100.00
41866;BME280;27539;43.222;27.558;2022-08-19T01:02:52;100019.97;;;23.28;100.00
41866;BME280;27539;43.222;27.558;2022-08-19T01:05:23;100023.84;;;23.23;100.00
41866;BME280;27539;43.222;27.558;2022-08-19T01:07:50;100014.28;;;23.07;100.00
41866;BME280;27539;43.222;27.558;2022-08-19T01:10:19;100017.00;;;23.03;100.00
41866;BME280;27539;43.222;27.558;2022-08-19T01:12:46;100015.06;;;23.16;100.00
41866;BME280;27539;43.222;27.558;2022-08-19T01:15:16;100028.84;;;23.26;100.00
41866;BME280;27539;43.222;27.558;2022-08-19T01:17:43;100017.41;;;23.14;100.00
41866;BME280;27539;43.222;27.558;2022-08-19T01:20:10;100028.72;;;22.93;100.00
41866;BME280;27539;43.222;27.558;2022-08-19T01:25:06;100027.63;;;22.77;100.00
41866;BME280;27539;43.222;27.558;2022-08-19T01:27:43;100027.19;;;22.66;100.00
41866;BME280;27539;43.222;27.558;2022-08-19T01:30:13;100031.78;;;22.79;100.00
41866;BME280;27539;43.222;27.558;2022-08-19T01:32:40;100029.09;;;22.53;100.00
41866;BME280;27539;43.222;27.558;2022-08-19T01:35:06;100029.44;;;22.52;100.00
41866;BME280;27539;43.222;27.558;2022-08-19T01:37:41;100024.22;;;22.62;100.00
41866;BME280;27539;43.222;27.558;2022-08-19T01:40:07;100019.03;;;22.64;100.00
41866;BME280;27539;43.222;27.558;2022-08-19T01:42:33;100018.16;;;22.73;100.00
41866;BME280;27539;43.222;27.558;2022-08-19T01:45:00;100016.88;;;22.61;100.00
41866;BME280;27539;43.222;27.558;2022-08-19T01:47:25;100016.13;;;22.43;100.00
41866;BME280;27539;43.222;27.558;2022-08-19T01:49:51;99982.56;;;22.25;100.00
41866;BME280;27539;43.222;27.558;2022-08-19T01:52:17;100015.75;;;22.54;100.00
41866;BME280;27539;43.222;27.558;2022-08-19T01:54:42;100007.25;;;22.54;100.00
41866;BME280;27539;43.222;27.558;2022-08-19T01:57:11;100006.22;;;22.58;100.00
41866;BME280;27539;43.222;27.558;2022-08-19T01:59:39;100004.66;;;22.70;100.00
41866;BME280;27539;43.222;27.558;2022-08-19T02:02:06;99989.53;;;22.57;100.00
41866;BME280;27539;43.222;27.558;2022-08-19T02:04:33;100010.63;;;22.77;100.00
41866;BME280;27539;43.222;27.558;2022-08-19T02:07:00;100018.72;;;22.87;100.00
41866;BME280;27539;43.222;27.558;2022-08-19T02:09:25;99985.47;;;22.75;100.00
41866;BME280;27539;43.222;27.558;2022-08-19T02:11:51;100004.91;;;22.85;100.00
41866;BME280;27539;43.222;27.558;2022-08-19T02:14:16;100010.91;;;22.84;100.00
41866;BME280;27539;43.222;27.558;2022-08-19T02:16:42;100009.78;;;22.76;100.00
41866;BME280;27539;43.222;27.558;2022-08-19T02:19:07;100012.13;;;22.44;100.00
41866;BME280;27539;43.222;27.558;2022-08-19T02:21:33;100009.84;;;22.68;100.00
41866;BME280;27539;43.222;27.558;2022-08-19T02:23:59;99997.63;;;22.76;100.00
41866;BME280;27539;43.222;27.558;2022-08-19T02:26:25;100007.94;;;22.80;100.00
41866;BME280;27539;43.222;27.558;2022-08-19T02:28:51;100010.72;;;22.59;100.00
41866;BME280;27539;43.222;27.558;2022-08-19T02:31:20;100005.13;;;22.42;100.00
41866;BME280;27539;43.222;27.558;2022-08-19T02:33:47;100007.91;;;22.21;100.00
41866;BME280;27539;43.222;27.558;2022-08-19T02:36:14;100005.44;;;22.49;100.00
41866;BME280;27539;43.222;27.558;2022-08-19T02:38:41;100009.94;;;22.50;100.00
41866;BME280;27539;43.222;27.558;2022-08-19T02:41:12;99990.22;;;22.24;100.00
41866;BME280;27539;43.222;27.558;2022-08-19T02:43:38;100016.13;;;22.43;100.00
41866;BME280;27539;43.222;27.558;2022-08-19T02:46:16;100011.53;;;22.30;100.00
41866;BME280;27539;43.222;27.558;2022-08-19T02:48:43;100008.88;;;22.25;100.00
41866;BME280;27539;43.222;27.558;2022-08-19T02:51:15;100003.94;;;21.96;100.00
41866;BME280;27539;43.222;27.558;2022-08-19T02:53:41;100003.06;;;22.13;100.00
41866;BME280;27539;43.222;27.558;2022-08-19T02:56:07;100012.13;;;21.89;100.00
41866;BME280;27539;43.222;27.558;2022-08-19T02:58:33;99985.72;;;21.67;100.00
41866;BME280;27539;43.222;27.558;2022-08-19T03:00:59;100012.84;;;21.77;100.00
41866;BME280;27539;43.222;27.558;2022-08-19T03:03:24;100007.78;;;21.91;100.00
41866;BME280;27539;43.222;27.558;2022-08-19T03:05:50;99988.53;;;21.58;100.00
41866;BME280;27539;43.222;27.558;2022-08-19T03:08:16;100007.53;;;21.58;100.00
41866;BME280;27539;43.222;27.558;2022-08-19T03:10:46;100024.66;;;21.70;100.00
41866;BME280;27539;43.222;27.558;2022-08-19T03:13:14;100024.19;;;21.60;100.00
41866;BME280;27539;43.222;27.558;2022-08-19T03:15:45;100000.50;;;21.64;100.00
41866;BME280;27539;43.222;27.558;2022-08-19T03:20:49;100050.47;;;21.69;100.00
41866;BME280;27539;43.222;27.558;2022-08-19T03:23:16;100040.50;;;21.45;100.00
41866;BME280;27539;43.222;27.558;2022-08-19T03:25:44;100048.81;;;21.68;100.00
41866;BME280;27539;43.222;27.558;2022-08-19T03:28:11;100018.88;;;21.49;100.00
41866;BME280;27539;43.222;27.558;2022-08-19T03:30:37;100055.13;;;21.56;100.00
41866;BME280;27539;43.222;27.558;2022-08-19T03:33:05;100045.13;;;21.76;100.00
41866;BME280;27539;43.222;27.558;2022-08-19T03:35:30;100049.94;;;21.93;100.00
41866;BME280;27539;43.222;27.558;2022-08-19T03:37:55;100051.78;;;21.80;100.00
41866;BME280;27539;43.222;27.558;2022-08-19T03:40:21;100042.28;;;21.76;100.00
41866;BME280;27539;43.222;27.558;2022-08-19T03:42:47;100044.44;;;21.88;100.00
41866;BME280;27539;43.222;27.558;2022-08-19T03:45:12;100055.78;;;21.79;100.00
41866;BME280;27539;43.222;27.558;2022-08-19T03:47:38;100057.44;;;21.89;100.00
41866;BME280;27539;43.222;27.558;2022-08-19T03:50:04;100053.59;;;22.02;100.00
41866;BME280;27539;43.222;27.558;2022-08-19T03:52:30;100059.41;;;22.06;100.00
41866;BME280;27539;43.222;27.558;2022-08-19T03:54:55;100059.88;;;22.25;100.00
41866;BME280;27539;43.222;27.558;2022-08-19T03:57:21;100043.38;;;22.27;100.00
41866;BME280;27539;43.222;27.558;2022-08-19T03:59:46;100055.06;;;22.26;100.00
41866;BME280;27539;43.222;27.558;2022-08-19T04:02:12;100065.69;;;22.37;100.00
41866;BME280;27539;43.222;27.558;2022-08-19T04:04:39;100052.16;;;22.43;100.00
41866;BME280;27539;43.222;27.558;2022-08-19T04:07:06;100057.44;;;22.53;100.00
41866;BME280;27539;43.222;27.558;2022-08-19T04:09:34;100051.28;;;22.51;100.00
41866;BME280;27539;43.222;27.558;2022-08-19T04:11:59;100065.53;;;22.72;100.00
41866;BME280;27539;43.222;27.558;2022-08-19T04:14:27;100067.81;;;22.79;100.00
41866;BME280;27539;43.222;27.558;2022-08-19T04:16:55;100074.09;;;22.93;100.00
41866;BME280;27539;43.222;27.558;2022-08-19T04:19:21;100070.75;;;23.00;100.00
41866;BME280;27539;43.222;27.558;2022-08-19T04:21:50;100072.00;;;23.11;100.00
41866;BME280;27539;43.222;27.558;2022-08-19T04:24:16;100076.59;;;23.24;100.00
41866;BME280;27539;43.222;27.558;2022-08-19T04:26:42;100078.19;;;23.34;100.00
41866;BME280;27539;43.222;27.558;2022-08-19T04:29:11;100070.16;;;23.36;100.00
41866;BME280;27539;43.222;27.558;2022-08-19T04:31:37;100087.28;;;23.48;100.00
41866;BME280;27539;43.222;27.558;2022-08-19T04:34:06;100077.56;;;23.49;100.00
41866;BME280;27539;43.222;27.558;2022-08-19T04:36:34;100084.78;;;23.68;100.00
41866;BME280;27539;43.222;27.558;2022-08-19T04:39:07;100084.22;;;23.75;100.00
41866;BME280;27539;43.222;27.558;2022-08-19T04:41:33;100088.59;;;23.93;100.00
41866;BME280;27539;43.222;27.558;2022-08-19T04:44:17;100093.63;;;24.08;100.00
41866;BME280;27539;43.222;27.558;2022-08-19T04:46:49;100094.97;;;24.23;100.00
41866;BME280;27539;43.222;27.558;2022-08-19T04:49:17;100088.47;;;24.35;100.00
41866;BME280;27539;43.222;27.558;2022-08-19T04:51:45;100057.66;;;24.25;100.00
41866;BME280;27539;43.222;27.558;2022-08-19T04:54:13;100084.63;;;24.52;100.00
41866;BME280;27539;43.222;27.558;2022-08-19T04:56:40;100083.56;;;24.56;100.00
41866;BME280;27539;43.222;27.558;2022-08-19T04:59:06;100082.75;;;24.56;100.00
41866;BME280;27539;43.222;27.558;2022-08-19T05:01:32;100054.16;;;24.52;100.00
41866;BME280;27539;43.222;27.558;2022-08-19T05:04:00;100063.69;;;24.69;100.00
41866;BME280;27539;43.222;27.558;2022-08-19T05:06:26;100098.28;;;24.95;100.00
41866;BME280;27539;43.222;27.558;2022-08-19T05:08:53;100088.81;;;24.91;100.00
41866;BME280;27539;43.222;27.558;2022-08-19T05:11:22;100057.75;;;24.86;100.00
41866;BME280;27539;43.222;27.558;2022-08-19T05:13:49;100098.31;;;25.20;100.00
41866;BME280;27539;43.222;27.558;2022-08-19T05:16:17;100097.13;;;25.21;100.00
41866;BME280;27539;43.222;27.558;2022-08-19T05:18:43;100094.03;;;25.38;100.00
41866;BME280;27539;43.222;27.558;2022-08-19T05:21:28;100097.44;;;25.44;100.00
41866;BME280;27539;43.222;27.558;2022-08-19T05:24:13;100064.91;;;25.45;100.00
41866;BME280;27539;43.222;27.558;2022-08-19T05:26:41;100069.84;;;25.60;100.00
41866;BME280;27539;43.222;27.558;2022-08-19T05:29:08;100092.00;;;25.79;100.00
41866;BME280;27539;43.222;27.558;2022-08-19T05:31:35;100098.50;;;25.92;100.00
41866;BME280;27539;43.222;27.558;2022-08-19T05:34:01;100091.41;;;25.86;100.00
41866;BME280;27539;43.222;27.558;2022-08-19T05:36:34;100066.69;;;25.90;100.00
41866;BME280;27539;43.222;27.558;2022-08-19T05:38:59;100095.75;;;26.24;100.00
41866;BME280;27539;43.222;27.558;2022-08-19T05:41:25;100086.56;;;26.30;100.00
41866;BME280;27539;43.222;27.558;2022-08-19T05:43:57;100056.75;;;26.28;100.00
41866;BME280;27539;43.222;27.558;2022-08-19T05:46:23;100070.28;;;26.47;100.00
41866;BME280;27539;43.222;27.558;2022-08-19T05:48:48;100064.25;;;26.48;100.00
41866;BME280;27539;43.222;27.558;2022-08-19T05:51:15;100087.75;;;26.74;100.00
41866;BME280;27539;43.222;27.558;2022-08-19T05:53:41;100085.16;;;26.84;100.00
41866;BME280;27539;43.222;27.558;2022-08-19T05:56:09;100081.91;;;26.86;100.00
41866;BME280;27539;43.222;27.558;2022-08-19T05:58:36;100050.66;;;26.74;100.00
41866;BME280;27539;43.222;27.558;2022-08-19T06:01:09;100059.66;;;26.76;100.00
41866;BME280;27539;43.222;27.558;2022-08-19T06:03:35;100080.44;;;26.92;100.00
41866;BME280;27539;43.222;27.558;2022-08-19T06:06:02;100076.38;;;26.93;100.00
41866;BME280;27539;43.222;27.558;2022-08-19T06:08:28;100074.53;;;27.17;100.00
41866;BME280;27539;43.222;27.558;2022-08-19T06:10:54;100040.63;;;27.15;100.00
41866;BME280;27539;43.222;27.558;2022-08-19T06:13:20;100065.00;;;27.28;100.00
41866;BME280;27539;43.222;27.558;2022-08-19T06:15:46;100068.31;;;27.46;100.00
41866;BME280;27539;43.222;27.558;2022-08-19T06:18:13;100061.53;;;27.54;100.00
41866;BME280;27539;43.222;27.558;2022-08-19T06:20:40;100038.44;;;27.44;100.00
41866;BME280;27539;43.222;27.558;2022-08-19T06:23:06;100058.91;;;27.65;100.00
41866;BME280;27539;43.222;27.558;2022-08-19T06:25:32;100057.63;;;27.63;100.00
41866;BME280;27539;43.222;27.558;2022-08-19T06:27:57;100055.06;;;27.77;100.00
41866;BME280;27539;43.222;27.558;2022-08-19T06:30:23;100056.84;;;27.82;100.00
41866;BME280;27539;43.222;27.558;2022-08-19T06:32:48;100053.22;;;27.85;100.00
41866;BME280;27539;43.222;27.558;2022-08-19T06:35:14;100051.00;;;27.78;100.00
41866;BME280;27539;43.222;27.558;2022-08-19T06:37:40;100028.09;;;27.74;100.00
41866;BME280;27539;43.222;27.558;2022-08-19T06:40:07;100043.63;;;28.16;100.00
41866;BME280;27539;43.222;27.558;2022-08-19T06:42:34;100027.56;;;28.31;100.00
41866;BME280;27539;43.222;27.558;2022-08-19T06:45:00;100049.00;;;28.63;100.00
41866;BME280;27539;43.222;27.558;2022-08-19T06:47:28;100048.09;;;28.82;100.00
41866;BME280;27539;43.222;27.558;2022-08-19T06:49:58;100046.53;;;29.12;100.00
41866;BME280;27539;43.222;27.558;2022-08-19T06:52:31;100054.38;;;28.92;100.00
41866;BME280;27539;43.222;27.558;2022-08-19T06:54:58;100053.13;;;28.66;100.00
41866;BME280;27539;43.222;27.558;2022-08-19T06:57:24;100049.81;;;28.87;100.00
41866;BME280;27539;43.222;27.558;2022-08-19T06:59:50;100046.69;;;28.96;100.00
41866;BME280;27539;43.222;27.558;2022-08-19T07:02:16;100044.06;;;29.10;100.00
41866;BME280;27539;43.222;27.558;2022-08-19T07:04:41;100041.59;;;29.08;100.00
41866;BME280;27539;43.222;27.558;2022-08-19T07:07:09;100042.47;;;29.13;100.00
41866;BME280;27539;43.222;27.558;2022-08-19T07:09:38;100014.22;;;29.11;100.00
41866;BME280;27539;43.222;27.558;2022-08-19T07:12:06;100039.84;;;29.57;100.00
41866;BME280;27539;43.222;27.558;2022-08-19T07:14:32;100040.31;;;29.63;100.00
41866;BME280;27539;43.222;27.558;2022-08-19T07:17:08;100015.59;;;29.51;100.00
41866;BME280;27539;43.222;27.558;2022-08-19T07:19:34;100010.44;;;29.34;100.00
41866;BME280;27539;43.222;27.558;2022-08-19T07:22:02;100023.59;;;29.38;100.00
41866;BME280;27539;43.222;27.558;2022-08-19T07:24:29;100031.72;;;29.33;100.00
41866;BME280;27539;43.222;27.558;2022-08-19T07:26:56;100025.84;;;29.52;100.00
41866;BME280;27539;43.222;27.558;2022-08-19T07:29:26;100031.63;;;29.86;100.00
41866;BME280;27539;43.222;27.558;2022-08-19T07:31:52;100033.78;;;29.96;100.00
41866;BME280;27539;43.222;27.558;2022-08-19T07:34:21;100028.56;;;30.05;100.00
41866;BME280;27539;43.222;27.558;2022-08-19T07:36:47;100045.25;;;29.96;100.00
41866;BME280;27539;43.222;27.558;2022-08-19T07:39:19;100003.56;;;29.68;100.00
41866;BME280;27539;43.222;27.558;2022-08-19T07:41:46;100049.00;;;30.00;100.00
41866;BME280;27539;43.222;27.558;2022-08-19T07:44:14;100039.16;;;30.01;100.00
41866;BME280;27539;43.222;27.558;2022-08-19T07:46:42;100041.94;;;29.94;100.00
41866;BME280;27539;43.222;27.558;2022-08-19T07:49:10;100034.00;;;29.80;100.00
41866;BME280;27539;43.222;27.558;2022-08-19T07:51:54;100033.94;;;29.77;100.00
41866;BME280;27539;43.222;27.558;2022-08-19T07:54:22;100040.75;;;29.95;100.00
41866;BME280;27539;43.222;27.558;2022-08-19T07:56:49;100034.09;;;29.87;100.00
41866;BME280;27539;43.222;27.558;2022-08-19T07:59:17;100018.72;;;30.06;100.00
41866;BME280;27539;43.222;27.558;2022-08-19T08:01:44;100007.53;;;30.31;100.00
41866;BME280;27539;43.222;27.558;2022-08-19T08:04:10;100032.53;;;30.75;100.00
41866;BME280;27539;43.222;27.558;2022-08-19T08:06:54;100020.56;;;30.70;99.24
41866;BME280;27539;43.222;27.558;2022-08-19T08:09:40;100032.38;;;31.06;100.00
41866;BME280;27539;43.222;27.558;2022-08-19T08:12:10;100021.00;;;30.72;100.00
41866;BME280;27539;43.222;27.558;2022-08-19T08:14:44;99997.28;;;30.75;98.99
41866;BME280;27539;43.222;27.558;2022-08-19T08:17:11;99994.94;;;30.91;95.42
41866;BME280;27539;43.222;27.558;2022-08-19T08:19:38;99997.09;;;31.05;97.10
41866;BME280;27539;43.222;27.558;2022-08-19T08:22:06;100008.44;;;30.87;94.83
41866;BME280;27539;43.222;27.558;2022-08-19T08:24:32;100008.44;;;30.87;93.12
41866;BME280;27539;43.222;27.558;2022-08-19T08:26:59;100020.94;;;30.65;94.58
41866;BME280;27539;43.222;27.558;2022-08-19T08:29:27;100013.63;;;30.71;95.83
41866;BME280;27539;43.222;27.558;2022-08-19T08:31:55;99976.31;;;30.71;94.80
41866;BME280;27539;43.222;27.558;2022-08-19T08:34:20;100010.81;;;30.78;91.82
41866;BME280;27539;43.222;27.558;2022-08-19T08:36:46;100011.91;;;31.11;97.56
41866;BME280;27539;43.222;27.558;2022-08-19T08:39:14;99976.19;;;31.08;94.61
41866;BME280;27539;43.222;27.558;2022-08-19T08:44:32;100001.75;;;31.28;89.75
41866;BME280;27539;43.222;27.558;2022-08-19T08:47:09;99997.13;;;31.12;88.45
41866;BME280;27539;43.222;27.558;2022-08-19T08:52:07;100002.88;;;31.12;89.08
41866;BME280;27539;43.222;27.558;2022-08-19T08:54:46;100003.00;;;31.37;90.15
41866;BME280;27539;43.222;27.558;2022-08-19T08:57:24;99971.78;;;31.29;88.43
41866;BME280;27539;43.222;27.558;2022-08-19T08:59:53;100003.59;;;31.68;90.32
41866;BME280;27539;43.222;27.558;2022-08-19T09:02:21;99990.03;;;31.72;86.43
41866;BME280;27539;43.222;27.558;2022-08-19T09:04:46;99983.41;;;31.54;83.25
41866;BME280;27539;43.222;27.558;2022-08-19T09:09:47;99988.47;;;31.93;83.63
41866;BME280;27539;43.222;27.558;2022-08-19T09:13:26;99995.16;;;32.18;83.82
41866;BME280;27539;43.222;27.558;2022-08-19T09:15:29;99999.25;;;32.21;82.98
41866;BME280;27539;43.222;27.558;2022-08-19T09:18:02;100008.59;;;31.89;82.83
41866;BME280;27539;43.222;27.558;2022-08-19T09:20:28;99995.00;;;31.75;82.93
41866;BME280;27539;43.222;27.558;2022-08-19T09:22:53;99996.16;;;31.53;82.63
41866;BME280;27539;43.222;27.558;2022-08-19T09:25:21;100006.41;;;31.54;83.80
41866;BME280;27539;43.222;27.558;2022-08-19T09:27:49;99979.41;;;31.73;83.30
41866;BME280;27539;43.222;27.558;2022-08-19T09:30:21;99967.13;;;31.94;82.69
41866;BME280;27539;43.222;27.558;2022-08-19T09:32:49;100006.63;;;32.15;81.83
41866;BME280;27539;43.222;27.558;2022-08-19T09:35:18;99997.59;;;32.09;78.25
41866;BME280;27539;43.222;27.558;2022-08-19T09:37:43;99991.03;;;32.26;79.94
41866;BME280;27539;43.222;27.558;2022-08-19T09:40:12;99972.13;;;32.36;77.73
41866;BME280;27539;43.222;27.558;2022-08-19T09:42:38;99990.22;;;32.26;76.17
41866;BME280;27539;43.222;27.558;2022-08-19T09:45:04;100004.25;;;32.49;83.24
41866;BME280;27539;43.222;27.558;2022-08-19T09:47:29;100003.84;;;32.61;77.70
41866;BME280;27539;43.222;27.558;2022-08-19T09:49:55;99986.97;;;32.49;77.85
41866;BME280;27539;43.222;27.558;2022-08-19T09:52:21;99989.03;;;32.81;76.90
41866;BME280;27539;43.222;27.558;2022-08-19T09:54:46;99997.59;;;32.38;75.04
41866;BME280;27539;43.222;27.558;2022-08-19T09:57:12;99968.81;;;32.27;75.36
41866;BME280;27539;43.222;27.558;2022-08-19T09:59:38;99987.78;;;32.75;75.63
41866;BME280;27539;43.222;27.558;2022-08-19T10:02:04;99995.19;;;32.58;73.49
41866;BME280;27539;43.222;27.558;2022-08-19T10:04:29;99998.91;;;32.58;74.55
41866;BME280;27539;43.222;27.558;2022-08-19T10:07:13;99998.06;;;32.54;70.98
41866;BME280;27539;43.222;27.558;2022-08-19T10:09:39;99997.25;;;32.79;76.56
41866;BME280;27539;43.222;27.558;2022-08-19T10:12:06;99995.56;;;32.92;71.15
41866;BME280;27539;43.222;27.558;2022-08-19T10:14:31;99998.06;;;33.11;73.38
41866;BME280;27539;43.222;27.558;2022-08-19T10:16:57;99984.44;;;33.26;74.14
41866;BME280;27539;43.222;27.558;2022-08-19T10:19:23;99992.56;;;33.60;71.64
41866;BME280;27539;43.222;27.558;2022-08-19T10:21:48;99971.97;;;33.58;65.82
41866;BME280;27539;43.222;27.558;2022-08-19T10:24:13;99992.63;;;33.28;65.44
41866;BME280;27539;43.222;27.558;2022-08-19T10:26:40;99973.75;;;33.02;65.91
41866;BME280;27539;43.222;27.558;2022-08-19T10:29:11;99980.28;;;33.27;66.75
41866;BME280;27539;43.222;27.558;2022-08-19T10:31:37;100002.00;;;33.68;69.17
41866;BME280;27539;43.222;27.558;2022-08-19T10:34:02;99976.91;;;33.61;68.40
41866;BME280;27539;43.222;27.558;2022-08-19T10:36:34;99991.00;;;33.27;65.00
41866;BME280;27539;43.222;27.558;2022-08-19T10:39:04;99982.41;;;33.09;67.35
41866;BME280;27539;43.222;27.558;2022-08-19T10:41:33;99974.56;;;33.13;66.51
41866;BME280;27539;43.222;27.558;2022-08-19T10:44:02;99985.66;;;33.29;67.59
41866;BME280;27539;43.222;27.558;2022-08-19T10:46:28;99993.53;;;33.03;63.06
41866;BME280;27539;43.222;27.558;2022-08-19T10:48:58;100000.50;;;32.95;66.95
41866;BME280;27539;43.222;27.558;2022-08-19T10:51:24;99995.53;;;33.28;67.32
41866;BME280;27539;43.222;27.558;2022-08-19T10:54:08;100000.06;;;33.18;67.70
41866;BME280;27539;43.222;27.558;2022-08-19T10:56:35;99967.56;;;33.10;71.73
41866;BME280;27539;43.222;27.558;2022-08-19T10:59:19;99997.53;;;33.45;71.44
41866;BME280;27539;43.222;27.558;2022-08-19T11:01:46;99990.53;;;33.43;65.93
41866;BME280;27539;43.222;27.558;2022-08-19T11:04:12;99990.25;;;33.08;65.11
41866;BME280;27539;43.222;27.558;2022-08-19T11:06:42;100002.53;;;33.27;68.63
41866;BME280;27539;43.222;27.558;2022-08-19T11:09:10;99996.38;;;33.21;67.24
41866;BME280;27539;43.222;27.558;2022-08-19T11:11:37;100001.34;;;32.78;66.49
41866;BME280;27539;43.222;27.558;2022-08-19T11:14:09;99994.38;;;32.86;70.54
41866;BME280;27539;43.222;27.558;2022-08-19T11:16:35;99990.16;;;33.33;68.56
41866;BME280;27539;43.222;27.558;2022-08-19T11:19:03;99963.78;;;33.39;65.76
41866;BME280;27539;43.222;27.558;2022-08-19T11:21:34;99988.44;;;33.61;63.97
41866;BME280;27539;43.222;27.558;2022-08-19T11:24:07;99986.00;;;33.42;62.27
41866;BME280;27539;43.222;27.558;2022-08-19T11:26:34;99995.94;;;33.33;61.11
41866;BME280;27539;43.222;27.558;2022-08-19T11:29:00;99978.16;;;33.49;64.75
41866;BME280;27539;43.222;27.558;2022-08-19T11:31:28;99949.72;;;33.55;62.76
41866;BME280;27539;43.222;27.558;2022-08-19T11:33:57;99973.78;;;34.00;58.54
41866;BME280;27539;43.222;27.558;2022-08-19T11:36:22;99939.00;;;33.55;60.84
41866;BME280;27539;43.222;27.558;2022-08-19T11:38:49;99971.69;;;34.08;58.96
41866;BME280;27539;43.222;27.558;2022-08-19T11:41:16;99938.09;;;33.76;61.43
41866;BME280;27539;43.222;27.558;2022-08-19T11:43:42;99969.59;;;34.19;59.50
41866;BME280;27539;43.222;27.558;2022-08-19T11:46:11;99932.06;;;34.16;57.32
41866;BME280;27539;43.222;27.558;2022-08-19T11:48:38;99948.97;;;34.70;60.27
41866;BME280;27539;43.222;27.558;2022-08-19T11:51:10;99931.31;;;35.02;59.06
41866;BME280;27539;43.222;27.558;2022-08-19T11:53:36;99961.31;;;34.74;54.33
41866;BME280;27539;43.222;27.558;2022-08-19T11:56:03;99950.50;;;34.33;54.69
41866;BME280;27539;43.222;27.558;2022-08-19T11:58:30;99951.78;;;34.28;57.64
41866;BME280;27539;43.222;27.558;2022-08-19T12:00:56;99925.06;;;34.13;54.91
41866;BME280;27539;43.222;27.558;2022-08-19T12:03:22;99946.44;;;34.23;55.11
41866;BME280;27539;43.222;27.558;2022-08-19T12:05:48;99951.91;;;34.10;59.37
41866;BME280;27539;43.222;27.558;2022-08-19T12:08:15;99961.13;;;33.80;59.33
41866;BME280;27539;43.222;27.558;2022-08-19T12:10:41;99947.59;;;33.70;57.71
41866;BME280;27539;43.222;27.558;2022-08-19T12:13:09;99946.72;;;33.80;60.03
41866;BME280;27539;43.222;27.558;2022-08-19T12:15:39;99906.28;;;33.87;57.31
41866;BME280;27539;43.222;27.558;2022-08-19T12:18:08;99940.38;;;34.07;57.46
41866;BME280;27539;43.222;27.558;2022-08-19T12:20:38;99948.81;;;33.76;59.07
41866;BME280;27539;43.222;27.558;2022-08-19T12:23:06;99947.31;;;33.39;58.81
41866;BME280;27539;43.222;27.558;2022-08-19T12:25:32;99931.72;;;33.22;59.51
41866;BME280;27539;43.222;27.558;2022-08-19T12:27:58;99938.59;;;33.50;57.60
41866;BME280;27539;43.222;27.558;2022-08-19T12:30:24;99936.06;;;33.73;57.68
41866;BME280;27539;43.222;27.558;2022-08-19T12:32:49;99933.72;;;34.17;55.76
41866;BME280;27539;43.222;27.558;2022-08-19T12:35:16;99932.69;;;34.41;56.24
41866;BME280;27539;43.222;27.558;2022-08-19T12:37:41;99923.97;;;33.96;53.97
41866;BME280;27539;43.222;27.558;2022-08-19T12:40:10;99925.81;;;33.54;55.00
41866;BME280;27539;43.222;27.558;2022-08-19T12:42:37;99927.25;;;33.07;55.56
41866;BME280;27539;43.222;27.558;2022-08-19T12:45:11;99932.53;;;33.23;56.20
41866;BME280;27539;43.222;27.558;2022-08-19T12:47:37;99925.41;;;33.60;61.72
41866;BME280;27539;43.222;27.558;2022-08-19T12:50:04;99926.38;;;34.02;58.96
41866;BME280;27539;43.222;27.558;2022-08-19T12:52:34;99881.47;;;33.97;55.62
41866;BME280;27539;43.222;27.558;2022-08-19T12:55:01;99921.28;;;34.27;57.43